Portada
METAR-TAF:

METAR-TAF

Aeroports :

Berlín, Alemanya

Aeroport de Berlín-Tegel

latitud: 52-34N, longitud: 013-19E, altitud: 37 m

Observació

L'informe es va fer fa 29 minuts, a les 17:20 UTC
Vent 5 kt del Sud/Sud-Est
Temperatura 4°C
Humitat 56%
Pressió 1020 hPa
Visibilitat 10 km o més
Cel ennuvolat a una alçada de 3800 ft
Cel ennuvolat a una alçada de 11000 ft

METAR: EDDT 191720Z 15005KT 9999 BKN038 BKN110 04/M04 Q1020 NOSIG

Hora: 18:49 (17:49 UTC)

Pronòstic

L'informe es va fer fa 49 minuts, a les 17:00 UTC
Pronòstic vàlid del 19 a les 18 UTC al 20 a les 18 UTC
Vent 5 kt del Est
Visibilitat 10 km o més
sense núvols per sota de 1500 mi sense presència de cumulonimbus.

TAF: EDDT 191700Z 1918/2018 09005KT CAVOK

Observacions i pronòstics meteorològics de més de 4000 aeroports (METAR i TAF).

Les estacions disponibles són els punts grocs i vermells al mapa.

Posi el ratolí al punt desitjat per veure el nom de l'estació.

Feu clic per veure les observacions i els pronòstics meteorològics.

Per canviar el mapa: feu clic els botons verds amb una creu de color negre per apropar; al botó verd amb un guió per allunyar la imatge; o en les fletxes verdes per a mapes adjacents.


METAR-TAF: